sensor_id;sensor_type;location;lat;lon;timestamp;pressure;altitude;pressure_sealevel;temperature
20867;BMP280;10593;48.398;10.698;2022-09-12T00:02:25;96378.72;;;21.72
20867;BMP280;10593;48.398;10.698;2022-09-12T00:04:51;96375.31;;;21.70
20867;BMP280;10593;48.398;10.698;2022-09-12T00:07:16;96376.34;;;21.68
20867;BMP280;10593;48.398;10.698;2022-09-12T00:09:42;96371.19;;;21.66
20867;BMP280;10593;48.398;10.698;2022-09-12T00:12:08;96369.59;;;21.64
20867;BMP280;10593;48.398;10.698;2022-09-12T00:14:34;96371.44;;;21.62
20867;BMP280;10593;48.398;10.698;2022-09-12T00:17:00;96372.38;;;21.61
20867;BMP280;10593;48.398;10.698;2022-09-12T00:19:28;96366.47;;;21.57
20867;BMP280;10593;48.398;10.698;2022-09-12T00:21:54;96365.81;;;21.54
20867;BMP280;10593;48.398;10.698;2022-09-12T00:24:20;96366.84;;;21.51
20867;BMP280;10593;48.398;10.698;2022-09-12T00:26:46;96370.47;;;21.49
20867;BMP280;10593;48.398;10.698;2022-09-12T00:29:18;96366.16;;;21.48
20867;BMP280;10593;48.398;10.698;2022-09-12T00:31:44;96364.69;;;21.44
20867;BMP280;10593;48.398;10.698;2022-09-12T00:34:11;96369.16;;;21.42
20867;BMP280;10593;48.398;10.698;2022-09-12T00:36:38;96361.50;;;21.39
20867;BMP280;10593;48.398;10.698;2022-09-12T00:39:06;96357.28;;;21.36
20867;BMP280;10593;48.398;10.698;2022-09-12T00:41:37;96364.25;;;21.36
20867;BMP280;10593;48.398;10.698;2022-09-12T00:46:55;96357.72;;;21.29
20867;BMP280;10593;48.398;10.698;2022-09-12T00:49:34;96353.44;;;21.28
20867;BMP280;10593;48.398;10.698;2022-09-12T00:55:12;96353.75;;;21.22
20867;BMP280;10593;48.398;10.698;2022-09-12T00:57:55;96353.94;;;21.19
20867;BMP280;10593;48.398;10.698;2022-09-12T01:00:25;96345.34;;;21.17
20867;BMP280;10593;48.398;10.698;2022-09-12T01:03:04;96342.81;;;21.16
20867;BMP280;10593;48.398;10.698;2022-09-12T01:05:34;96340.31;;;21.14
20867;BMP280;10593;48.398;10.698;2022-09-12T01:08:05;96334.34;;;21.12
20867;BMP280;10593;48.398;10.698;2022-09-12T01:10:34;96332.66;;;21.11
20867;BMP280;10593;48.398;10.698;2022-09-12T01:13:02;96333.66;;;21.09
20867;BMP280;10593;48.398;10.698;2022-09-12T01:15:29;96331.88;;;21.09
20867;BMP280;10593;48.398;10.698;2022-09-12T01:18:12;96327.69;;;21.07
20867;BMP280;10593;48.398;10.698;2022-09-12T01:20:59;96329.63;;;21.03
20867;BMP280;10593;48.398;10.698;2022-09-12T01:27:29;96321.47;;;20.94
20867;BMP280;10593;48.398;10.698;2022-09-12T01:30:18;96316.44;;;20.91
20867;BMP280;10593;48.398;10.698;2022-09-12T01:33:17;96311.28;;;20.89
20867;BMP280;10593;48.398;10.698;2022-09-12T01:38:45;96318.44;;;20.86
20867;BMP280;10593;48.398;10.698;2022-09-12T01:41:41;96310.81;;;20.81
20867;BMP280;10593;48.398;10.698;2022-09-12T01:44:34;96305.59;;;20.81
20867;BMP280;10593;48.398;10.698;2022-09-12T01:52:22;96298.13;;;20.75
20867;BMP280;10593;48.398;10.698;2022-09-12T01:55:06;96303.53;;;20.72
20867;BMP280;10593;48.398;10.698;2022-09-12T01:57:53;96293.22;;;20.69
20867;BMP280;10593;48.398;10.698;2022-09-12T02:00:19;96292.47;;;20.67
20867;BMP280;10593;48.398;10.698;2022-09-12T02:03:29;96297.81;;;20.66
20867;BMP280;10593;48.398;10.698;2022-09-12T02:06:18;96290.91;;;20.65
20867;BMP280;10593;48.398;10.698;2022-09-12T02:08:57;96295.44;;;20.61
20867;BMP280;10593;48.398;10.698;2022-09-12T02:11:25;96297.31;;;20.59
20867;BMP280;10593;48.398;10.698;2022-09-12T02:14:03;96285.19;;;20.58
20867;BMP280;10593;48.398;10.698;2022-09-12T02:16:45;96284.41;;;20.56
20867;BMP280;10593;48.398;10.698;2022-09-12T02:19:17;96275.81;;;20.54
20867;BMP280;10593;48.398;10.698;2022-09-12T02:21:51;96288.88;;;20.54
20867;BMP280;10593;48.398;10.698;2022-09-12T02:24:19;96273.38;;;20.51
20867;BMP280;10593;48.398;10.698;2022-09-12T02:26:52;96277.84;;;20.49
20867;BMP280;10593;48.398;10.698;2022-09-12T02:29:19;96277.09;;;20.47
20867;BMP280;10593;48.398;10.698;2022-09-12T02:31:48;96282.41;;;20.46
20867;BMP280;10593;48.398;10.698;2022-09-12T02:34:53;96274.66;;;20.44
20867;BMP280;10593;48.398;10.698;2022-09-12T02:37:52;96279.22;;;20.41
20867;BMP280;10593;48.398;10.698;2022-09-12T02:40:21;96278.53;;;20.37
20867;BMP280;10593;48.398;10.698;2022-09-12T02:42:48;96277.72;;;20.37
20867;BMP280;10593;48.398;10.698;2022-09-12T02:45:15;96274.25;;;20.36
20867;BMP280;10593;48.398;10.698;2022-09-12T02:48:26;96282.25;;;20.33
20867;BMP280;10593;48.398;10.698;2022-09-12T02:50:53;96277.03;;;20.33
20867;BMP280;10593;48.398;10.698;2022-09-12T02:53:19;96278.78;;;20.33
20867;BMP280;10593;48.398;10.698;2022-09-12T02:55:46;96281.50;;;20.31
20867;BMP280;10593;48.398;10.698;2022-09-12T02:58:21;96276.28;;;20.31
20867;BMP280;10593;48.398;10.698;2022-09-12T03:06:50;96273.22;;;20.23
20867;BMP280;10593;48.398;10.698;2022-09-12T03:09:46;96271.63;;;20.21
20867;BMP280;10593;48.398;10.698;2022-09-12T03:12:53;96263.97;;;20.18
20867;BMP280;10593;48.398;10.698;2022-09-12T03:18:56;96265.13;;;20.12
20867;BMP280;10593;48.398;10.698;2022-09-12T03:24:31;96265.31;;;20.09
20867;BMP280;10593;48.398;10.698;2022-09-12T03:27:18;96272.28;;;20.09
20867;BMP280;10593;48.398;10.698;2022-09-12T03:29:46;96262.03;;;20.06
20867;BMP280;10593;48.398;10.698;2022-09-12T03:32:14;96269.03;;;20.05
20867;BMP280;10593;48.398;10.698;2022-09-12T03:34:39;96265.56;;;20.05
20867;BMP280;10593;48.398;10.698;2022-09-12T03:37:05;96268.16;;;20.05
20867;BMP280;10593;48.398;10.698;2022-09-12T03:39:31;96272.56;;;20.04
20867;BMP280;10593;48.398;10.698;2022-09-12T03:41:57;96276.00;;;20.05
20867;BMP280;10593;48.398;10.698;2022-09-12T03:44:23;96271.72;;;20.04
20867;BMP280;10593;48.398;10.698;2022-09-12T03:46:49;96280.38;;;20.04
20867;BMP280;10593;48.398;10.698;2022-09-12T03:49:15;96274.31;;;20.04
20867;BMP280;10593;48.398;10.698;2022-09-12T03:51:42;96269.09;;;20.04
20867;BMP280;10593;48.398;10.698;2022-09-12T03:54:07;96271.72;;;20.04
20867;BMP280;10593;48.398;10.698;2022-09-12T03:56:33;96272.56;;;20.04
20867;BMP280;10593;48.398;10.698;2022-09-12T03:59:00;96265.66;;;20.03
20867;BMP280;10593;48.398;10.698;2022-09-12T04:01:25;96272.66;;;20.01
20867;BMP280;10593;48.398;10.698;2022-09-12T04:03:51;96271.00;;;20.00
20867;BMP280;10593;48.398;10.698;2022-09-12T04:06:20;96266.63;;;20.01
20867;BMP280;10593;48.398;10.698;2022-09-12T04:08:52;96271.00;;;20.00
20867;BMP280;10593;48.398;10.698;2022-09-12T04:11:20;96273.69;;;19.99
20867;BMP280;10593;48.398;10.698;2022-09-12T04:13:46;96271.22;;;19.96
20867;BMP280;10593;48.398;10.698;2022-09-12T04:16:13;96262.59;;;19.95
20867;BMP280;10593;48.398;10.698;2022-09-12T04:18:40;96260.97;;;19.93
20867;BMP280;10593;48.398;10.698;2022-09-12T04:21:12;96264.50;;;19.92
20867;BMP280;10593;48.398;10.698;2022-09-12T04:23:39;96269.81;;;19.90
20867;BMP280;10593;48.398;10.698;2022-09-12T04:26:05;96273.31;;;19.89
20867;BMP280;10593;48.398;10.698;2022-09-12T04:28:36;96264.75;;;19.87
20867;BMP280;10593;48.398;10.698;2022-09-12T04:31:06;96270.06;;;19.86
20867;BMP280;10593;48.398;10.698;2022-09-12T04:33:35;96260.63;;;19.83
20867;BMP280;10593;48.398;10.698;2022-09-12T04:36:13;96266.78;;;19.82
20867;BMP280;10593;48.398;10.698;2022-09-12T04:38:42;96268.63;;;19.80
20867;BMP280;10593;48.398;10.698;2022-09-12T04:41:25;96266.09;;;19.79
20867;BMP280;10593;48.398;10.698;2022-09-12T04:43:54;96270.53;;;19.77
20867;BMP280;10593;48.398;10.698;2022-09-12T04:46:23;96263.72;;;19.74
20867;BMP280;10593;48.398;10.698;2022-09-12T04:48:50;96266.44;;;19.73
20867;BMP280;10593;48.398;10.698;2022-09-12T04:51:23;96272.47;;;19.73
20867;BMP280;10593;48.398;10.698;2022-09-12T04:53:55;96261.28;;;19.71
20867;BMP280;10593;48.398;10.698;2022-09-12T04:56:21;96273.56;;;19.69
20867;BMP280;10593;48.398;10.698;2022-09-12T04:58:48;96268.34;;;19.69
20867;BMP280;10593;48.398;10.698;2022-09-12T05:01:20;96268.41;;;19.68
20867;BMP280;10593;48.398;10.698;2022-09-12T05:03:47;96267.59;;;19.67
20867;BMP280;10593;48.398;10.698;2022-09-12T05:06:20;96268.50;;;19.66
20867;BMP280;10593;48.398;10.698;2022-09-12T05:08:46;96269.44;;;19.65
20867;BMP280;10593;48.398;10.698;2022-09-12T05:11:16;96273.72;;;19.66
20867;BMP280;10593;48.398;10.698;2022-09-12T05:13:43;96269.44;;;19.65
20867;BMP280;10593;48.398;10.698;2022-09-12T05:16:12;96272.97;;;19.64
20867;BMP280;10593;48.398;10.698;2022-09-12T05:18:40;96272.97;;;19.64
20867;BMP280;10593;48.398;10.698;2022-09-12T05:21:08;96277.31;;;19.64
20867;BMP280;10593;48.398;10.698;2022-09-12T05:23:35;96282.59;;;19.62
20867;BMP280;10593;48.398;10.698;2022-09-12T05:26:03;96280.00;;;19.62
20867;BMP280;10593;48.398;10.698;2022-09-12T05:28:33;96285.31;;;19.61
20867;BMP280;10593;48.398;10.698;2022-09-12T05:33:36;96285.38;;;19.59
20867;BMP280;10593;48.398;10.698;2022-09-12T05:36:06;96281.94;;;19.59
20867;BMP280;10593;48.398;10.698;2022-09-12T05:38:35;96285.38;;;19.59
20867;BMP280;10593;48.398;10.698;2022-09-12T05:41:06;96283.69;;;19.58
20867;BMP280;10593;48.398;10.698;2022-09-12T05:43:38;96283.69;;;19.58
20867;BMP280;10593;48.398;10.698;2022-09-12T05:46:08;96292.44;;;19.57
20867;BMP280;10593;48.398;10.698;2022-09-12T05:48:36;96289.84;;;19.57
20867;BMP280;10593;48.398;10.698;2022-09-12T05:51:08;96298.41;;;19.59
20867;BMP280;10593;48.398;10.698;2022-09-12T05:53:35;96293.22;;;19.59
20867;BMP280;10593;48.398;10.698;2022-09-12T05:56:10;96302.72;;;19.60
20867;BMP280;10593;48.398;10.698;2022-09-12T05:58:39;96299.19;;;19.61
20867;BMP280;10593;48.398;10.698;2022-09-12T06:01:11;96307.78;;;19.63
20867;BMP280;10593;48.398;10.698;2022-09-12T06:03:43;96295.50;;;19.65
20867;BMP280;10593;48.398;10.698;2022-09-12T06:06:11;96297.19;;;19.66
20867;BMP280;10593;48.398;10.698;2022-09-12T06:08:43;96297.09;;;19.68
20867;BMP280;10593;48.398;10.698;2022-09-12T06:11:13;96293.50;;;19.70
20867;BMP280;10593;48.398;10.698;2022-09-12T06:13:42;96295.19;;;19.71
20867;BMP280;10593;48.398;10.698;2022-09-12T06:16:17;96293.31;;;19.73
20867;BMP280;10593;48.398;10.698;2022-09-12T06:18:49;96304.44;;;19.77
20867;BMP280;10593;48.398;10.698;2022-09-12T06:21:16;96292.25;;;19.77
20867;BMP280;10593;48.398;10.698;2022-09-12T06:23:43;96295.63;;;19.79
20867;BMP280;10593;48.398;10.698;2022-09-12T06:26:11;96286.88;;;19.80
20867;BMP280;10593;48.398;10.698;2022-09-12T06:28:42;96293.59;;;19.84
20867;BMP280;10593;48.398;10.698;2022-09-12T06:31:15;96289.06;;;19.88
20867;BMP280;10593;48.398;10.698;2022-09-12T06:33:45;96292.66;;;20.02
20867;BMP280;10593;48.398;10.698;2022-09-12T06:36:20;96295.28;;;20.18
20867;BMP280;10593;48.398;10.698;2022-09-12T06:38:47;96285.59;;;20.35
20867;BMP280;10593;48.398;10.698;2022-09-12T06:41:16;96283.66;;;20.54
20867;BMP280;10593;48.398;10.698;2022-09-12T06:43:42;96288.00;;;20.69
20867;BMP280;10593;48.398;10.698;2022-09-12T06:46:09;96289.00;;;20.82
20867;BMP280;10593;48.398;10.698;2022-09-12T06:48:36;96294.50;;;20.93
20867;BMP280;10593;48.398;10.698;2022-09-12T06:51:08;96292.19;;;21.03
20867;BMP280;10593;48.398;10.698;2022-09-12T06:53:36;96294.28;;;21.12
20867;BMP280;10593;48.398;10.698;2022-09-12T06:58:30;96295.25;;;21.25
20867;BMP280;10593;48.398;10.698;2022-09-12T07:01:09;96297.47;;;21.30
20867;BMP280;10593;48.398;10.698;2022-09-12T07:03:37;96292.91;;;21.34
20867;BMP280;10593;48.398;10.698;2022-09-12T07:06:11;96296.94;;;21.39
20867;BMP280;10593;48.398;10.698;2022-09-12T07:08:38;96296.88;;;21.41
20867;BMP280;10593;48.398;10.698;2022-09-12T07:11:21;96297.63;;;21.43
20867;BMP280;10593;48.398;10.698;2022-09-12T07:13:51;96308.00;;;21.44
20867;BMP280;10593;48.398;10.698;2022-09-12T07:16:17;96296.59;;;21.45
20867;BMP280;10593;48.398;10.698;2022-09-12T07:18:44;96295.66;;;21.46
20867;BMP280;10593;48.398;10.698;2022-09-12T07:21:13;96297.25;;;21.49
20867;BMP280;10593;48.398;10.698;2022-09-12T07:23:40;96301.66;;;21.48
20867;BMP280;10593;48.398;10.698;2022-09-12T07:26:09;96295.47;;;21.49
20867;BMP280;10593;48.398;10.698;2022-09-12T07:28:36;96292.00;;;21.49
20867;BMP280;10593;48.398;10.698;2022-09-12T07:31:11;96294.63;;;21.49
20867;BMP280;10593;48.398;10.698;2022-09-12T07:33:38;96298.09;;;21.49
20867;BMP280;10593;48.398;10.698;2022-09-12T07:36:09;96292.88;;;21.49
20867;BMP280;10593;48.398;10.698;2022-09-12T07:38:39;96295.41;;;21.51
20867;BMP280;10593;48.398;10.698;2022-09-12T07:41:20;96293.53;;;21.53
20867;BMP280;10593;48.398;10.698;2022-09-12T07:43:47;96299.59;;;21.53
20867;BMP280;10593;48.398;10.698;2022-09-12T07:46:13;96305.47;;;21.57
20867;BMP280;10593;48.398;10.698;2022-09-12T07:48:39;96308.84;;;21.59
20867;BMP280;10593;48.398;10.698;2022-09-12T07:51:09;96300.81;;;21.62
20867;BMP280;10593;48.398;10.698;2022-09-12T07:53:45;96303.31;;;21.65
20867;BMP280;10593;48.398;10.698;2022-09-12T07:56:11;96295.34;;;21.66
20867;BMP280;10593;48.398;10.698;2022-09-12T07:58:39;96298.53;;;21.71
20867;BMP280;10593;48.398;10.698;2022-09-12T08:01:09;96299.91;;;21.77
20867;BMP280;10593;48.398;10.698;2022-09-12T08:03:35;96296.19;;;21.81
20867;BMP280;10593;48.398;10.698;2022-09-12T08:08:29;96299.91;;;21.91
20867;BMP280;10593;48.398;10.698;2022-09-12T08:10:59;96304.88;;;21.95
20867;BMP280;10593;48.398;10.698;2022-09-12T08:13:27;96305.53;;;21.99
20867;BMP280;10593;48.398;10.698;2022-09-12T08:15:57;96300.84;;;22.04
20867;BMP280;10593;48.398;10.698;2022-09-12T08:18:29;96303.19;;;22.08
20867;BMP280;10593;48.398;10.698;2022-09-12T08:20:59;96297.66;;;22.13
20867;BMP280;10593;48.398;10.698;2022-09-12T08:23:26;96301.69;;;22.18
20867;BMP280;10593;48.398;10.698;2022-09-12T08:26:01;96304.97;;;22.22
20867;BMP280;10593;48.398;10.698;2022-09-12T08:28:29;96298.59;;;22.26
20867;BMP280;10593;48.398;10.698;2022-09-12T08:31:07;96291.19;;;22.32
20867;BMP280;10593;48.398;10.698;2022-09-12T08:33:34;96293.63;;;22.35
20867;BMP280;10593;48.398;10.698;2022-09-12T08:36:14;96294.22;;;22.40
20867;BMP280;10593;48.398;10.698;2022-09-12T08:38:43;96292.22;;;22.44
20867;BMP280;10593;48.398;10.698;2022-09-12T08:41:35;96298.03;;;22.49
20867;BMP280;10593;48.398;10.698;2022-09-12T08:47:32;96289.88;;;22.53
20867;BMP280;10593;48.398;10.698;2022-09-12T08:55:36;96286.56;;;22.64
20867;BMP280;10593;48.398;10.698;2022-09-12T08:58:18;96296.84;;;22.67
20867;BMP280;10593;48.398;10.698;2022-09-12T09:06:57;96284.69;;;22.66
20867;BMP280;10593;48.398;10.698;2022-09-12T09:09:51;96288.16;;;22.66
20867;BMP280;10593;48.398;10.698;2022-09-12T09:15:46;96281.84;;;22.69
20867;BMP280;10593;48.398;10.698;2022-09-12T09:18:25;96273.91;;;22.70
20867;BMP280;10593;48.398;10.698;2022-09-12T09:21:01;96277.19;;;22.74
20867;BMP280;10593;48.398;10.698;2022-09-12T09:23:39;96282.22;;;22.77
20867;BMP280;10593;48.398;10.698;2022-09-12T09:26:26;96276.13;;;22.76
20867;BMP280;10593;48.398;10.698;2022-09-12T09:28:59;96274.16;;;22.80
20867;BMP280;10593;48.398;10.698;2022-09-12T09:31:34;96269.66;;;22.82
20867;BMP280;10593;48.398;10.698;2022-09-12T09:34:22;96272.72;;;22.88
20867;BMP280;10593;48.398;10.698;2022-09-12T09:36:55;96270.81;;;22.90
20867;BMP280;10593;48.398;10.698;2022-09-12T09:39:45;96268.13;;;22.92
20867;BMP280;10593;48.398;10.698;2022-09-12T09:42:35;96266.44;;;22.91
20867;BMP280;10593;48.398;10.698;2022-09-12T09:45:14;96264.47;;;22.94
20867;BMP280;10593;48.398;10.698;2022-09-12T09:47:48;96264.16;;;22.99
20867;BMP280;10593;48.398;10.698;2022-09-12T09:50:16;96263.94;;;23.02
20867;BMP280;10593;48.398;10.698;2022-09-12T09:52:42;96263.53;;;23.08
20867;BMP280;10593;48.398;10.698;2022-09-12T09:55:20;96250.22;;;23.11
20867;BMP280;10593;48.398;10.698;2022-09-12T09:57:46;96256.03;;;23.16
20867;BMP280;10593;48.398;10.698;2022-09-12T10:00:32;96258.34;;;23.20
20867;BMP280;10593;48.398;10.698;2022-09-12T10:03:28;96250.50;;;23.20
20867;BMP280;10593;48.398;10.698;2022-09-12T10:06:00;96253.72;;;23.24
20867;BMP280;10593;48.398;10.698;2022-09-12T10:08:30;96255.31;;;23.26
20867;BMP280;10593;48.398;10.698;2022-09-12T10:11:05;96254.28;;;23.29
20867;BMP280;10593;48.398;10.698;2022-09-12T10:13:56;96265.38;;;23.32
20867;BMP280;10593;48.398;10.698;2022-09-12T10:16:27;96257.41;;;23.34
20867;BMP280;10593;48.398;10.698;2022-09-12T10:18:57;96260.56;;;23.39
20867;BMP280;10593;48.398;10.698;2022-09-12T10:21:34;96251.56;;;23.43
20867;BMP280;10593;48.398;10.698;2022-09-12T10:24:25;96250.50;;;23.45
20867;BMP280;10593;48.398;10.698;2022-09-12T10:26:57;96248.50;;;23.49
20867;BMP280;10593;48.398;10.698;2022-09-12T10:29:33;96245.66;;;23.52
20867;BMP280;10593;48.398;10.698;2022-09-12T10:32:07;96246.22;;;23.57
20867;BMP280;10593;48.398;10.698;2022-09-12T10:34:41;96247.66;;;23.60
20867;BMP280;10593;48.398;10.698;2022-09-12T10:37:17;96250.06;;;23.63
20867;BMP280;10593;48.398;10.698;2022-09-12T10:39:53;96240.22;;;23.67
20867;BMP280;10593;48.398;10.698;2022-09-12T10:42:55;96243.69;;;23.67
20867;BMP280;10593;48.398;10.698;2022-09-12T10:45:31;96233.19;;;23.67
20867;BMP280;10593;48.398;10.698;2022-09-12T10:48:20;96232.97;;;23.70
20867;BMP280;10593;48.398;10.698;2022-09-12T10:50:47;96232.84;;;23.72
20867;BMP280;10593;48.398;10.698;2022-09-12T10:53:24;96224.88;;;23.73
20867;BMP280;10593;48.398;10.698;2022-09-12T10:56:15;96219.53;;;23.75
20867;BMP280;10593;48.398;10.698;2022-09-12T10:59:27;96226.25;;;23.79
20867;BMP280;10593;48.398;10.698;2022-09-12T11:02:36;96224.25;;;23.82
20867;BMP280;10593;48.398;10.698;2022-09-12T11:05:17;96215.34;;;23.85
20867;BMP280;10593;48.398;10.698;2022-09-12T11:08:09;96222.06;;;23.89
20867;BMP280;10593;48.398;10.698;2022-09-12T11:11:10;96216.59;;;23.92
20867;BMP280;10593;48.398;10.698;2022-09-12T11:14:02;96211.03;;;23.96
20867;BMP280;10593;48.398;10.698;2022-09-12T11:16:39;96212.38;;;24.02
20867;BMP280;10593;48.398;10.698;2022-09-12T11:23:06;96211.84;;;24.09
20867;BMP280;10593;48.398;10.698;2022-09-12T11:26:12;96211.63;;;24.12
20867;BMP280;10593;48.398;10.698;2022-09-12T11:34:57;96214.31;;;24.23
20867;BMP280;10593;48.398;10.698;2022-09-12T11:42:48;96216.16;;;24.34
20867;BMP280;10593;48.398;10.698;2022-09-12T11:45:34;96204.59;;;24.36
20867;BMP280;10593;48.398;10.698;2022-09-12T11:48:11;96211.22;;;24.42
20867;BMP280;10593;48.398;10.698;2022-09-12T11:50:39;96205.81;;;24.43
20867;BMP280;10593;48.398;10.698;2022-09-12T11:53:30;96211.59;;;24.48
20867;BMP280;10593;48.398;10.698;2022-09-12T11:56:20;96216.63;;;24.51
20867;BMP280;10593;48.398;10.698;2022-09-12T11:58:57;96214.66;;;24.55
20867;BMP280;10593;48.398;10.698;2022-09-12T12:01:51;96209.16;;;24.58
20867;BMP280;10593;48.398;10.698;2022-09-12T12:04:29;96211.56;;;24.61
20867;BMP280;10593;48.398;10.698;2022-09-12T12:07:05;96213.97;;;24.64
20867;BMP280;10593;48.398;10.698;2022-09-12T12:09:31;96204.31;;;24.64
20867;BMP280;10593;48.398;10.698;2022-09-12T12:12:04;96205.03;;;24.66
20867;BMP280;10593;48.398;10.698;2022-09-12T12:14:44;96208.38;;;24.68
20867;BMP280;10593;48.398;10.698;2022-09-12T12:17:23;96195.22;;;24.68
20867;BMP280;10593;48.398;10.698;2022-09-12T12:20:04;96195.00;;;24.71
20867;BMP280;10593;48.398;10.698;2022-09-12T12:22:30;96187.81;;;24.73
20867;BMP280;10593;48.398;10.698;2022-09-12T12:27:55;96180.47;;;24.78
20867;BMP280;10593;48.398;10.698;2022-09-12T12:32:59;96186.09;;;24.85
20867;BMP280;10593;48.398;10.698;2022-09-12T12:38:02;96171.75;;;24.89
20867;BMP280;10593;48.398;10.698;2022-09-12T12:40:29;96169.84;;;24.91
20867;BMP280;10593;48.398;10.698;2022-09-12T12:42:56;96167.13;;;24.92
20867;BMP280;10593;48.398;10.698;2022-09-12T12:48:15;96164.00;;;24.98
20867;BMP280;10593;48.398;10.698;2022-09-12T12:50:42;96160.22;;;25.02
20867;BMP280;10593;48.398;10.698;2022-09-12T12:53:24;96153.75;;;25.06
20867;BMP280;10593;48.398;10.698;2022-09-12T12:55:54;96146.59;;;25.08
20867;BMP280;10593;48.398;10.698;2022-09-12T12:58:39;96147.19;;;25.12
20867;BMP280;10593;48.398;10.698;2022-09-12T13:01:20;96148.88;;;25.13
20867;BMP280;10593;48.398;10.698;2022-09-12T13:04:04;96143.38;;;25.16
20867;BMP280;10593;48.398;10.698;2022-09-12T13:06:39;96139.78;;;25.17
20867;BMP280;10593;48.398;10.698;2022-09-12T13:09:42;96141.28;;;25.21
20867;BMP280;10593;48.398;10.698;2022-09-12T13:12:18;96134.94;;;25.23
20867;BMP280;10593;48.398;10.698;2022-09-12T13:14:54;96127.63;;;25.27
20867;BMP280;10593;48.398;10.698;2022-09-12T13:17:39;96132.78;;;25.28
20867;BMP280;10593;48.398;10.698;2022-09-12T13:22:46;96130.63;;;25.33
20867;BMP280;10593;48.398;10.698;2022-09-12T13:25:39;96114.84;;;25.33
20867;BMP280;10593;48.398;10.698;2022-09-12T13:30:41;96112.56;;;25.40
20867;BMP280;10593;48.398;10.698;2022-09-12T13:36:22;96107.06;;;25.43
20867;BMP280;10593;48.398;10.698;2022-09-12T13:44:52;96097.25;;;25.45
20867;BMP280;10593;48.398;10.698;2022-09-12T13:47:29;96100.50;;;25.48
20867;BMP280;10593;48.398;10.698;2022-09-12T13:49:56;96100.38;;;25.50
20867;BMP280;10593;48.398;10.698;2022-09-12T13:52:28;96100.94;;;25.53
20867;BMP280;10593;48.398;10.698;2022-09-12T13:54:57;96102.66;;;25.54
20867;BMP280;10593;48.398;10.698;2022-09-12T13:57:38;96094.63;;;25.56
20867;BMP280;10593;48.398;10.698;2022-09-12T14:00:15;96095.34;;;25.58
20867;BMP280;10593;48.398;10.698;2022-09-12T14:02:46;96082.88;;;25.60
20867;BMP280;10593;48.398;10.698;2022-09-12T14:05:24;96099.28;;;25.63
20867;BMP280;10593;48.398;10.698;2022-09-12T14:07:51;96093.75;;;25.66
20867;BMP280;10593;48.398;10.698;2022-09-12T14:10:36;96093.53;;;25.69
20867;BMP280;10593;48.398;10.698;2022-09-12T14:13:11;96085.41;;;25.72
20867;BMP280;10593;48.398;10.698;2022-09-12T14:15:43;96084.44;;;25.73
20867;BMP280;10593;48.398;10.698;2022-09-12T14:18:30;96085.16;;;25.75
20867;BMP280;10593;48.398;10.698;2022-09-12T14:21:09;96082.41;;;25.77
20867;BMP280;10593;48.398;10.698;2022-09-12T14:23:43;96080.47;;;25.79
20867;BMP280;10593;48.398;10.698;2022-09-12T14:26:12;96077.69;;;25.80
20867;BMP280;10593;48.398;10.698;2022-09-12T14:28:42;96081.78;;;25.84
20867;BMP280;10593;48.398;10.698;2022-09-12T14:33:54;96076.28;;;25.87
20867;BMP280;10593;48.398;10.698;2022-09-12T14:36:34;96083.25;;;25.88
20867;BMP280;10593;48.398;10.698;2022-09-12T14:39:33;96073.56;;;25.89
20867;BMP280;10593;48.398;10.698;2022-09-12T14:42:10;96068.13;;;25.90
20867;BMP280;10593;48.398;10.698;2022-09-12T14:44:38;96071.47;;;25.92
20867;BMP280;10593;48.398;10.698;2022-09-12T14:47:22;96069.69;;;25.92
20867;BMP280;10593;48.398;10.698;2022-09-12T14:49:49;96066.94;;;25.94
20867;BMP280;10593;48.398;10.698;2022-09-12T14:52:32;96069.34;;;25.97
20867;BMP280;10593;48.398;10.698;2022-09-12T14:57:42;96063.81;;;26.00
20867;BMP280;10593;48.398;10.698;2022-09-12T15:02:39;96052.06;;;26.04
20867;BMP280;10593;48.398;10.698;2022-09-12T15:10:36;96047.00;;;26.12
20867;BMP280;10593;48.398;10.698;2022-09-12T15:15:37;96038.75;;;26.16
20867;BMP280;10593;48.398;10.698;2022-09-12T15:18:04;96034.16;;;26.18
20867;BMP280;10593;48.398;10.698;2022-09-12T15:20:31;96034.88;;;26.20
20867;BMP280;10593;48.398;10.698;2022-09-12T15:22:57;96034.63;;;26.23
20867;BMP280;10593;48.398;10.698;2022-09-12T15:25:23;96036.28;;;26.24
20867;BMP280;10593;48.398;10.698;2022-09-12T15:27:51;96030.06;;;26.25
20867;BMP280;10593;48.398;10.698;2022-09-12T15:30:18;96027.31;;;26.27
20867;BMP280;10593;48.398;10.698;2022-09-12T15:32:44;96025.47;;;26.27
20867;BMP280;10593;48.398;10.698;2022-09-12T15:35:21;96025.47;;;26.27
20867;BMP280;10593;48.398;10.698;2022-09-12T15:37:48;96029.22;;;26.25
20867;BMP280;10593;48.398;10.698;2022-09-12T15:40:15;96023.25;;;26.23
20867;BMP280;10593;48.398;10.698;2022-09-12T15:42:41;96028.53;;;26.23
20867;BMP280;10593;48.398;10.698;2022-09-12T15:45:29;96025.88;;;26.23
20867;BMP280;10593;48.398;10.698;2022-09-12T15:47:55;96030.44;;;26.21
20867;BMP280;10593;48.398;10.698;2022-09-12T15:50:21;96019.88;;;26.21
20867;BMP280;10593;48.398;10.698;2022-09-12T15:52:47;96024.34;;;26.20
20867;BMP280;10593;48.398;10.698;2022-09-12T15:55:24;96022.53;;;26.21
20867;BMP280;10593;48.398;10.698;2022-09-12T15:57:50;96023.47;;;26.20
20867;BMP280;10593;48.398;10.698;2022-09-12T16:00:17;96018.22;;;26.20
20867;BMP280;10593;48.398;10.698;2022-09-12T16:02:48;96018.94;;;26.22
20867;BMP280;10593;48.398;10.698;2022-09-12T16:05:23;96020.72;;;26.21
20867;BMP280;10593;48.398;10.698;2022-09-12T16:07:52;96025.88;;;26.23
20867;BMP280;10593;48.398;10.698;2022-09-12T16:10:25;96021.44;;;26.23
20867;BMP280;10593;48.398;10.698;2022-09-12T16:12:53;96020.47;;;26.24
20867;BMP280;10593;48.398;10.698;2022-09-12T16:15:22;96020.47;;;26.24
20867;BMP280;10593;48.398;10.698;2022-09-12T16:17:48;96019.50;;;26.25
20867;BMP280;10593;48.398;10.698;2022-09-12T16:20:15;96019.41;;;26.27
20867;BMP280;10593;48.398;10.698;2022-09-12T16:22:42;96018.53;;;26.26
20867;BMP280;10593;48.398;10.698;2022-09-12T16:25:08;96023.69;;;26.28
20867;BMP280;10593;48.398;10.698;2022-09-12T16:27:34;96015.78;;;26.28